sensor_id;sensor_type;location;lat;lon;timestamp;P1;durP1;ratioP1;P2;durP2;ratioP2
24631;SDS011;59977;48.782;9.190;2024-01-30T00:01:53;31.70;;;13.02;;
24631;SDS011;59977;48.782;9.190;2024-01-30T00:04:18;25.40;;;9.30;;
24631;SDS011;59977;48.782;9.190;2024-01-30T00:06:44;22.77;;;8.93;;
24631;SDS011;59977;48.782;9.190;2024-01-30T00:09:10;31.23;;;12.18;;
24631;SDS011;59977;48.782;9.190;2024-01-30T00:11:39;19.55;;;9.30;;
24631;SDS011;59977;48.782;9.190;2024-01-30T00:14:04;20.20;;;8.65;;
24631;SDS011;59977;48.782;9.190;2024-01-30T00:16:30;26.35;;;9.10;;
24631;SDS011;59977;48.782;9.190;2024-01-30T00:18:56;21.77;;;9.98;;
24631;SDS011;59977;48.782;9.190;2024-01-30T00:21:22;35.63;;;16.45;;
24631;SDS011;59977;48.782;9.190;2024-01-30T00:23:48;29.65;;;14.65;;
24631;SDS011;59977;48.782;9.190;2024-01-30T00:26:14;19.92;;;9.75;;
24631;SDS011;59977;48.782;9.190;2024-01-30T00:28:40;14.32;;;7.72;;
24631;SDS011;59977;48.782;9.190;2024-01-30T00:31:06;18.17;;;7.35;;
24631;SDS011;59977;48.782;9.190;2024-01-30T00:33:32;19.33;;;7.30;;
24631;SDS011;59977;48.782;9.190;2024-01-30T00:35:57;20.92;;;7.50;;
24631;SDS011;59977;48.782;9.190;2024-01-30T00:38:23;17.95;;;7.25;;
24631;SDS011;59977;48.782;9.190;2024-01-30T00:40:49;13.32;;;6.32;;
24631;SDS011;59977;48.782;9.190;2024-01-30T00:43:15;17.33;;;6.80;;
24631;SDS011;59977;48.782;9.190;2024-01-30T00:45:41;16.88;;;7.53;;
24631;SDS011;59977;48.782;9.190;2024-01-30T00:48:06;16.38;;;8.38;;
24631;SDS011;59977;48.782;9.190;2024-01-30T00:50:32;24.05;;;9.48;;
24631;SDS011;59977;48.782;9.190;2024-01-30T00:52:58;21.40;;;9.60;;
24631;SDS011;59977;48.782;9.190;2024-01-30T00:55:23;20.70;;;9.35;;
24631;SDS011;59977;48.782;9.190;2024-01-30T00:57:49;17.13;;;8.38;;
24631;SDS011;59977;48.782;9.190;2024-01-30T01:00:14;22.00;;;8.90;;
24631;SDS011;59977;48.782;9.190;2024-01-30T01:02:43;16.42;;;7.20;;
24631;SDS011;59977;48.782;9.190;2024-01-30T01:05:09;21.17;;;8.77;;
24631;SDS011;59977;48.782;9.190;2024-01-30T01:07:34;20.73;;;9.05;;
24631;SDS011;59977;48.782;9.190;2024-01-30T01:10:00;21.00;;;9.00;;
24631;SDS011;59977;48.782;9.190;2024-01-30T01:12:26;24.75;;;9.13;;
24631;SDS011;59977;48.782;9.190;2024-01-30T01:14:51;22.73;;;9.38;;
24631;SDS011;59977;48.782;9.190;2024-01-30T01:17:17;18.38;;;8.98;;
24631;SDS011;59977;48.782;9.190;2024-01-30T01:19:43;19.65;;;8.30;;
24631;SDS011;59977;48.782;9.190;2024-01-30T01:22:09;19.63;;;8.75;;
24631;SDS011;59977;48.782;9.190;2024-01-30T01:24:35;20.20;;;8.23;;
24631;SDS011;59977;48.782;9.190;2024-01-30T01:27:01;16.98;;;8.50;;
24631;SDS011;59977;48.782;9.190;2024-01-30T01:29:27;21.95;;;8.02;;
24631;SDS011;59977;48.782;9.190;2024-01-30T01:31:55;15.68;;;8.00;;
24631;SDS011;59977;48.782;9.190;2024-01-30T01:34:21;21.73;;;7.90;;
24631;SDS011;59977;48.782;9.190;2024-01-30T01:36:48;23.67;;;7.55;;
24631;SDS011;59977;48.782;9.190;2024-01-30T01:39:14;18.85;;;8.30;;
24631;SDS011;59977;48.782;9.190;2024-01-30T01:41:40;23.83;;;8.10;;
24631;SDS011;59977;48.782;9.190;2024-01-30T01:44:06;16.33;;;7.20;;
24631;SDS011;59977;48.782;9.190;2024-01-30T01:46:34;15.88;;;7.13;;
24631;SDS011;59977;48.782;9.190;2024-01-30T01:49:00;19.23;;;8.25;;
24631;SDS011;59977;48.782;9.190;2024-01-30T01:51:27;21.58;;;7.50;;
24631;SDS011;59977;48.782;9.190;2024-01-30T01:53:56;17.42;;;7.68;;
24631;SDS011;59977;48.782;9.190;2024-01-30T01:56:24;16.95;;;7.80;;
24631;SDS011;59977;48.782;9.190;2024-01-30T01:58:51;24.13;;;8.38;;
24631;SDS011;59977;48.782;9.190;2024-01-30T02:01:20;13.23;;;6.88;;
24631;SDS011;59977;48.782;9.190;2024-01-30T02:03:46;21.08;;;7.43;;
24631;SDS011;59977;48.782;9.190;2024-01-30T02:06:15;13.45;;;6.88;;
24631;SDS011;59977;48.782;9.190;2024-01-30T02:08:42;14.48;;;6.68;;
24631;SDS011;59977;48.782;9.190;2024-01-30T02:11:08;15.98;;;6.22;;
24631;SDS011;59977;48.782;9.190;2024-01-30T02:13:35;13.45;;;6.35;;
24631;SDS011;59977;48.782;9.190;2024-01-30T02:16:01;14.95;;;6.85;;
24631;SDS011;59977;48.782;9.190;2024-01-30T02:18:26;16.10;;;6.07;;
24631;SDS011;59977;48.782;9.190;2024-01-30T02:20:53;12.98;;;6.63;;
24631;SDS011;59977;48.782;9.190;2024-01-30T02:23:20;14.85;;;7.43;;
24631;SDS011;59977;48.782;9.190;2024-01-30T02:25:48;12.48;;;6.85;;
24631;SDS011;59977;48.782;9.190;2024-01-30T02:28:14;15.45;;;7.20;;
24631;SDS011;59977;48.782;9.190;2024-01-30T02:30:39;19.27;;;8.25;;
24631;SDS011;59977;48.782;9.190;2024-01-30T02:33:07;16.90;;;8.00;;
24631;SDS011;59977;48.782;9.190;2024-01-30T02:35:33;14.30;;;7.85;;
24631;SDS011;59977;48.782;9.190;2024-01-30T02:37:59;13.82;;;7.13;;
24631;SDS011;59977;48.782;9.190;2024-01-30T02:40:24;15.40;;;6.78;;
24631;SDS011;59977;48.782;9.190;2024-01-30T02:42:50;16.85;;;6.75;;
24631;SDS011;59977;48.782;9.190;2024-01-30T02:45:16;11.88;;;5.95;;
24631;SDS011;59977;48.782;9.190;2024-01-30T02:47:42;13.10;;;5.63;;
24631;SDS011;59977;48.782;9.190;2024-01-30T02:50:07;10.23;;;6.30;;
24631;SDS011;59977;48.782;9.190;2024-01-30T02:52:33;15.60;;;7.20;;
24631;SDS011;59977;48.782;9.190;2024-01-30T02:54:59;14.55;;;7.90;;
24631;SDS011;59977;48.782;9.190;2024-01-30T02:57:25;16.27;;;7.70;;
24631;SDS011;59977;48.782;9.190;2024-01-30T02:59:51;13.45;;;7.20;;
24631;SDS011;59977;48.782;9.190;2024-01-30T03:02:16;13.43;;;6.95;;
24631;SDS011;59977;48.782;9.190;2024-01-30T03:04:42;15.32;;;7.57;;
24631;SDS011;59977;48.782;9.190;2024-01-30T03:07:08;15.18;;;6.93;;
24631;SDS011;59977;48.782;9.190;2024-01-30T03:09:33;12.43;;;7.25;;
24631;SDS011;59977;48.782;9.190;2024-01-30T03:11:59;13.13;;;7.35;;
24631;SDS011;59977;48.782;9.190;2024-01-30T03:14:25;16.92;;;7.20;;
24631;SDS011;59977;48.782;9.190;2024-01-30T03:16:51;12.98;;;6.57;;
24631;SDS011;59977;48.782;9.190;2024-01-30T03:19:17;13.60;;;7.03;;
24631;SDS011;59977;48.782;9.190;2024-01-30T03:21:43;12.80;;;6.57;;
24631;SDS011;59977;48.782;9.190;2024-01-30T03:24:09;12.20;;;6.40;;
24631;SDS011;59977;48.782;9.190;2024-01-30T03:26:35;16.45;;;7.65;;
24631;SDS011;59977;48.782;9.190;2024-01-30T03:29:00;16.90;;;6.95;;
24631;SDS011;59977;48.782;9.190;2024-01-30T03:31:26;15.05;;;7.57;;
24631;SDS011;59977;48.782;9.190;2024-01-30T03:33:52;13.38;;;6.50;;
24631;SDS011;59977;48.782;9.190;2024-01-30T03:36:17;11.50;;;6.32;;
24631;SDS011;59977;48.782;9.190;2024-01-30T03:38:43;16.05;;;6.53;;
24631;SDS011;59977;48.782;9.190;2024-01-30T03:41:09;14.65;;;7.80;;
24631;SDS011;59977;48.782;9.190;2024-01-30T03:43:35;13.18;;;6.60;;
24631;SDS011;59977;48.782;9.190;2024-01-30T03:46:01;11.65;;;6.22;;
24631;SDS011;59977;48.782;9.190;2024-01-30T03:48:27;18.40;;;7.40;;
24631;SDS011;59977;48.782;9.190;2024-01-30T03:50:53;12.30;;;6.78;;
24631;SDS011;59977;48.782;9.190;2024-01-30T03:53:19;19.33;;;7.18;;
24631;SDS011;59977;48.782;9.190;2024-01-30T03:55:45;13.70;;;6.88;;
24631;SDS011;59977;48.782;9.190;2024-01-30T03:58:10;16.80;;;7.78;;
24631;SDS011;59977;48.782;9.190;2024-01-30T04:00:36;16.33;;;6.90;;
24631;SDS011;59977;48.782;9.190;2024-01-30T04:03:02;19.50;;;7.43;;
24631;SDS011;59977;48.782;9.190;2024-01-30T04:05:27;15.85;;;6.40;;
24631;SDS011;59977;48.782;9.190;2024-01-30T04:07:53;14.30;;;6.72;;
24631;SDS011;59977;48.782;9.190;2024-01-30T04:10:19;13.82;;;6.65;;
24631;SDS011;59977;48.782;9.190;2024-01-30T04:12:44;15.13;;;7.18;;
24631;SDS011;59977;48.782;9.190;2024-01-30T04:15:10;15.82;;;7.15;;
24631;SDS011;59977;48.782;9.190;2024-01-30T04:17:38;12.20;;;6.75;;
24631;SDS011;59977;48.782;9.190;2024-01-30T04:20:05;15.82;;;6.80;;
24631;SDS011;59977;48.782;9.190;2024-01-30T04:22:31;15.52;;;6.63;;
24631;SDS011;59977;48.782;9.190;2024-01-30T04:24:56;12.50;;;6.82;;
24631;SDS011;59977;48.782;9.190;2024-01-30T04:27:22;12.05;;;6.47;;
24631;SDS011;59977;48.782;9.190;2024-01-30T04:29:48;13.23;;;6.65;;
24631;SDS011;59977;48.782;9.190;2024-01-30T04:32:13;12.80;;;6.65;;
24631;SDS011;59977;48.782;9.190;2024-01-30T04:34:39;12.52;;;6.70;;
24631;SDS011;59977;48.782;9.190;2024-01-30T04:37:05;12.57;;;5.90;;
24631;SDS011;59977;48.782;9.190;2024-01-30T04:39:30;12.45;;;6.13;;
24631;SDS011;59977;48.782;9.190;2024-01-30T04:41:58;11.18;;;6.22;;
24631;SDS011;59977;48.782;9.190;2024-01-30T04:44:24;15.98;;;6.68;;
24631;SDS011;59977;48.782;9.190;2024-01-30T04:46:50;12.45;;;7.22;;
24631;SDS011;59977;48.782;9.190;2024-01-30T04:49:15;11.52;;;6.25;;
24631;SDS011;59977;48.782;9.190;2024-01-30T04:51:41;14.23;;;6.97;;
24631;SDS011;59977;48.782;9.190;2024-01-30T04:54:06;15.27;;;7.22;;
24631;SDS011;59977;48.782;9.190;2024-01-30T04:56:32;10.13;;;6.15;;
24631;SDS011;59977;48.782;9.190;2024-01-30T04:58:58;13.68;;;6.30;;
24631;SDS011;59977;48.782;9.190;2024-01-30T05:01:24;12.18;;;6.28;;
24631;SDS011;59977;48.782;9.190;2024-01-30T05:03:49;11.52;;;6.72;;
24631;SDS011;59977;48.782;9.190;2024-01-30T05:06:23;14.07;;;6.40;;
24631;SDS011;59977;48.782;9.190;2024-01-30T05:08:52;15.60;;;6.75;;
24631;SDS011;59977;48.782;9.190;2024-01-30T05:11:18;11.43;;;6.15;;
24631;SDS011;59977;48.782;9.190;2024-01-30T05:13:43;12.05;;;6.60;;
24631;SDS011;59977;48.782;9.190;2024-01-30T05:16:09;13.75;;;6.85;;
24631;SDS011;59977;48.782;9.190;2024-01-30T05:18:34;13.38;;;6.18;;
24631;SDS011;59977;48.782;9.190;2024-01-30T05:21:01;12.20;;;6.93;;
24631;SDS011;59977;48.782;9.190;2024-01-30T05:23:27;12.00;;;6.15;;
24631;SDS011;59977;48.782;9.190;2024-01-30T05:25:53;13.10;;;7.35;;
24631;SDS011;59977;48.782;9.190;2024-01-30T05:28:19;14.52;;;7.05;;
24631;SDS011;59977;48.782;9.190;2024-01-30T05:30:44;12.07;;;6.30;;
24631;SDS011;59977;48.782;9.190;2024-01-30T05:33:10;15.63;;;7.20;;
24631;SDS011;59977;48.782;9.190;2024-01-30T05:35:37;15.90;;;7.10;;
24631;SDS011;59977;48.782;9.190;2024-01-30T05:38:03;11.38;;;6.80;;
24631;SDS011;59977;48.782;9.190;2024-01-30T05:40:29;15.75;;;7.38;;
24631;SDS011;59977;48.782;9.190;2024-01-30T05:42:55;16.77;;;8.10;;
24631;SDS011;59977;48.782;9.190;2024-01-30T05:45:23;17.33;;;8.40;;
24631;SDS011;59977;48.782;9.190;2024-01-30T05:47:48;12.63;;;7.40;;
24631;SDS011;59977;48.782;9.190;2024-01-30T05:50:14;16.50;;;7.93;;
24631;SDS011;59977;48.782;9.190;2024-01-30T05:52:40;21.15;;;8.57;;
24631;SDS011;59977;48.782;9.190;2024-01-30T05:55:07;20.63;;;8.20;;
24631;SDS011;59977;48.782;9.190;2024-01-30T05:57:32;16.15;;;7.72;;
24631;SDS011;59977;48.782;9.190;2024-01-30T05:59:58;18.10;;;7.40;;
24631;SDS011;59977;48.782;9.190;2024-01-30T06:02:23;18.08;;;8.43;;
24631;SDS011;59977;48.782;9.190;2024-01-30T06:04:49;22.08;;;8.05;;
24631;SDS011;59977;48.782;9.190;2024-01-30T06:07:15;13.85;;;7.43;;
24631;SDS011;59977;48.782;9.190;2024-01-30T06:09:42;18.42;;;8.60;;
24631;SDS011;59977;48.782;9.190;2024-01-30T06:12:08;19.05;;;8.15;;
24631;SDS011;59977;48.782;9.190;2024-01-30T06:14:34;17.08;;;7.80;;
24631;SDS011;59977;48.782;9.190;2024-01-30T06:16:59;15.40;;;7.13;;
24631;SDS011;59977;48.782;9.190;2024-01-30T06:19:25;18.30;;;8.00;;
24631;SDS011;59977;48.782;9.190;2024-01-30T06:21:50;16.15;;;7.95;;
24631;SDS011;59977;48.782;9.190;2024-01-30T06:24:16;15.57;;;6.88;;
24631;SDS011;59977;48.782;9.190;2024-01-30T06:26:42;19.35;;;7.82;;
24631;SDS011;59977;48.782;9.190;2024-01-30T06:29:07;18.52;;;7.18;;
24631;SDS011;59977;48.782;9.190;2024-01-30T06:31:39;15.60;;;6.65;;
24631;SDS011;59977;48.782;9.190;2024-01-30T06:34:06;17.77;;;7.50;;
24631;SDS011;59977;48.782;9.190;2024-01-30T06:36:32;12.95;;;6.47;;
24631;SDS011;59977;48.782;9.190;2024-01-30T06:38:58;24.58;;;7.32;;
24631;SDS011;59977;48.782;9.190;2024-01-30T06:41:23;20.33;;;8.40;;
24631;SDS011;59977;48.782;9.190;2024-01-30T06:43:50;17.55;;;7.57;;
24631;SDS011;59977;48.782;9.190;2024-01-30T06:46:16;24.20;;;7.65;;
24631;SDS011;59977;48.782;9.190;2024-01-30T06:48:42;18.80;;;6.50;;
24631;SDS011;59977;48.782;9.190;2024-01-30T06:51:09;14.93;;;7.35;;
24631;SDS011;59977;48.782;9.190;2024-01-30T06:53:35;20.15;;;7.45;;
24631;SDS011;59977;48.782;9.190;2024-01-30T06:56:01;15.40;;;6.43;;
24631;SDS011;59977;48.782;9.190;2024-01-30T06:58:27;14.95;;;6.47;;
24631;SDS011;59977;48.782;9.190;2024-01-30T07:00:53;15.98;;;5.90;;
24631;SDS011;59977;48.782;9.190;2024-01-30T07:03:19;14.68;;;6.43;;
24631;SDS011;59977;48.782;9.190;2024-01-30T07:05:44;12.27;;;6.25;;
24631;SDS011;59977;48.782;9.190;2024-01-30T07:08:10;17.80;;;6.75;;
24631;SDS011;59977;48.782;9.190;2024-01-30T07:10:35;15.02;;;6.63;;
24631;SDS011;59977;48.782;9.190;2024-01-30T07:13:01;11.75;;;6.57;;
24631;SDS011;59977;48.782;9.190;2024-01-30T07:15:27;20.17;;;7.53;;
24631;SDS011;59977;48.782;9.190;2024-01-30T07:17:53;34.22;;;9.20;;
24631;SDS011;59977;48.782;9.190;2024-01-30T07:20:19;20.70;;;8.52;;
24631;SDS011;59977;48.782;9.190;2024-01-30T07:22:45;24.60;;;10.13;;
24631;SDS011;59977;48.782;9.190;2024-01-30T07:25:11;27.63;;;9.48;;
24631;SDS011;59977;48.782;9.190;2024-01-30T07:27:36;25.48;;;8.60;;
24631;SDS011;59977;48.782;9.190;2024-01-30T07:30:02;20.75;;;8.50;;
24631;SDS011;59977;48.782;9.190;2024-01-30T07:32:28;18.38;;;9.05;;
24631;SDS011;59977;48.782;9.190;2024-01-30T07:34:53;22.40;;;8.88;;
24631;SDS011;59977;48.782;9.190;2024-01-30T07:37:19;19.52;;;8.07;;
24631;SDS011;59977;48.782;9.190;2024-01-30T07:39:45;19.60;;;8.45;;
24631;SDS011;59977;48.782;9.190;2024-01-30T07:42:10;21.95;;;8.10;;
24631;SDS011;59977;48.782;9.190;2024-01-30T07:44:36;20.23;;;6.88;;
24631;SDS011;59977;48.782;9.190;2024-01-30T07:47:01;17.80;;;7.57;;
24631;SDS011;59977;48.782;9.190;2024-01-30T07:49:29;22.58;;;8.43;;
24631;SDS011;59977;48.782;9.190;2024-01-30T07:51:54;15.75;;;8.60;;
24631;SDS011;59977;48.782;9.190;2024-01-30T07:54:20;21.75;;;8.77;;
24631;SDS011;59977;48.782;9.190;2024-01-30T07:56:45;19.55;;;8.70;;
24631;SDS011;59977;48.782;9.190;2024-01-30T07:59:11;16.40;;;8.68;;
24631;SDS011;59977;48.782;9.190;2024-01-30T08:01:37;21.40;;;8.80;;
24631;SDS011;59977;48.782;9.190;2024-01-30T08:04:03;22.52;;;9.45;;
24631;SDS011;59977;48.782;9.190;2024-01-30T08:06:29;20.02;;;8.60;;
24631;SDS011;59977;48.782;9.190;2024-01-30T08:08:55;27.42;;;9.55;;
24631;SDS011;59977;48.782;9.190;2024-01-30T08:11:22;19.75;;;9.40;;
24631;SDS011;59977;48.782;9.190;2024-01-30T08:13:52;19.92;;;9.07;;
24631;SDS011;59977;48.782;9.190;2024-01-30T08:16:18;22.35;;;8.93;;
24631;SDS011;59977;48.782;9.190;2024-01-30T08:18:43;21.13;;;9.68;;
24631;SDS011;59977;48.782;9.190;2024-01-30T08:21:09;24.17;;;9.68;;
24631;SDS011;59977;48.782;9.190;2024-01-30T08:23:35;22.77;;;9.20;;
24631;SDS011;59977;48.782;9.190;2024-01-30T08:26:00;20.98;;;9.18;;
24631;SDS011;59977;48.782;9.190;2024-01-30T08:28:26;19.25;;;8.82;;
24631;SDS011;59977;48.782;9.190;2024-01-30T08:30:52;18.88;;;9.70;;
24631;SDS011;59977;48.782;9.190;2024-01-30T08:33:17;17.70;;;8.70;;
24631;SDS011;59977;48.782;9.190;2024-01-30T08:35:43;17.13;;;8.23;;
24631;SDS011;59977;48.782;9.190;2024-01-30T08:38:09;20.30;;;9.43;;
24631;SDS011;59977;48.782;9.190;2024-01-30T08:40:34;21.75;;;9.98;;
24631;SDS011;59977;48.782;9.190;2024-01-30T08:43:00;21.88;;;10.10;;
24631;SDS011;59977;48.782;9.190;2024-01-30T08:45:25;25.27;;;9.40;;
24631;SDS011;59977;48.782;9.190;2024-01-30T08:47:51;20.00;;;8.88;;
24631;SDS011;59977;48.782;9.190;2024-01-30T08:50:17;17.95;;;8.13;;
24631;SDS011;59977;48.782;9.190;2024-01-30T08:52:42;20.15;;;7.90;;
24631;SDS011;59977;48.782;9.190;2024-01-30T08:55:08;15.52;;;8.20;;
24631;SDS011;59977;48.782;9.190;2024-01-30T08:57:34;16.25;;;8.05;;
24631;SDS011;59977;48.782;9.190;2024-01-30T09:00:00;16.90;;;7.53;;
24631;SDS011;59977;48.782;9.190;2024-01-30T09:02:29;19.95;;;8.20;;
24631;SDS011;59977;48.782;9.190;2024-01-30T09:04:54;21.55;;;7.80;;
24631;SDS011;59977;48.782;9.190;2024-01-30T09:07:21;28.08;;;8.23;;
24631;SDS011;59977;48.782;9.190;2024-01-30T09:09:47;19.00;;;8.27;;
24631;SDS011;59977;48.782;9.190;2024-01-30T09:12:14;16.13;;;8.10;;
24631;SDS011;59977;48.782;9.190;2024-01-30T09:14:39;18.92;;;9.02;;
24631;SDS011;59977;48.782;9.190;2024-01-30T09:17:07;15.60;;;8.07;;
24631;SDS011;59977;48.782;9.190;2024-01-30T09:19:33;21.75;;;9.65;;
24631;SDS011;59977;48.782;9.190;2024-01-30T09:21:58;18.17;;;8.95;;
24631;SDS011;59977;48.782;9.190;2024-01-30T09:24:25;14.93;;;8.18;;
24631;SDS011;59977;48.782;9.190;2024-01-30T09:26:51;15.95;;;8.25;;
24631;SDS011;59977;48.782;9.190;2024-01-30T09:29:17;16.67;;;8.27;;
24631;SDS011;59977;48.782;9.190;2024-01-30T09:31:47;18.70;;;8.70;;
24631;SDS011;59977;48.782;9.190;2024-01-30T09:34:13;18.88;;;10.13;;
24631;SDS011;59977;48.782;9.190;2024-01-30T09:36:39;16.98;;;8.73;;
24631;SDS011;59977;48.782;9.190;2024-01-30T09:39:05;19.33;;;9.20;;
24631;SDS011;59977;48.782;9.190;2024-01-30T09:41:41;20.65;;;8.88;;
24631;SDS011;59977;48.782;9.190;2024-01-30T09:44:13;21.70;;;9.35;;
24631;SDS011;59977;48.782;9.190;2024-01-30T09:46:41;15.82;;;7.90;;
24631;SDS011;59977;48.782;9.190;2024-01-30T09:49:08;15.95;;;7.78;;
24631;SDS011;59977;48.782;9.190;2024-01-30T09:51:34;22.02;;;7.97;;
24631;SDS011;59977;48.782;9.190;2024-01-30T09:54:01;15.15;;;8.10;;
24631;SDS011;59977;48.782;9.190;2024-01-30T09:56:28;13.73;;;8.18;;
24631;SDS011;59977;48.782;9.190;2024-01-30T09:58:54;19.05;;;8.63;;
24631;SDS011;59977;48.782;9.190;2024-01-30T10:01:19;24.38;;;8.38;;
24631;SDS011;59977;48.782;9.190;2024-01-30T10:03:45;16.00;;;8.00;;
24631;SDS011;59977;48.782;9.190;2024-01-30T10:06:11;20.00;;;8.30;;
24631;SDS011;59977;48.782;9.190;2024-01-30T10:08:37;17.90;;;8.35;;
24631;SDS011;59977;48.782;9.190;2024-01-30T10:11:02;23.00;;;8.45;;
24631;SDS011;59977;48.782;9.190;2024-01-30T10:13:28;16.08;;;7.97;;
24631;SDS011;59977;48.782;9.190;2024-01-30T10:15:54;15.65;;;8.38;;
24631;SDS011;59977;48.782;9.190;2024-01-30T10:18:22;15.68;;;8.30;;
24631;SDS011;59977;48.782;9.190;2024-01-30T10:20:48;16.10;;;8.43;;
24631;SDS011;59977;48.782;9.190;2024-01-30T10:23:14;16.80;;;8.13;;
24631;SDS011;59977;48.782;9.190;2024-01-30T10:25:40;18.38;;;8.18;;
24631;SDS011;59977;48.782;9.190;2024-01-30T10:28:06;17.48;;;8.27;;
24631;SDS011;59977;48.782;9.190;2024-01-30T10:30:32;22.20;;;8.38;;
24631;SDS011;59977;48.782;9.190;2024-01-30T10:32:57;21.25;;;8.73;;
24631;SDS011;59977;48.782;9.190;2024-01-30T10:35:23;20.40;;;7.97;;
24631;SDS011;59977;48.782;9.190;2024-01-30T10:37:49;25.95;;;9.65;;
24631;SDS011;59977;48.782;9.190;2024-01-30T10:40:14;30.38;;;13.77;;
24631;SDS011;59977;48.782;9.190;2024-01-30T10:42:44;23.85;;;13.70;;
24631;SDS011;59977;48.782;9.190;2024-01-30T10:45:11;29.67;;;15.05;;
24631;SDS011;59977;48.782;9.190;2024-01-30T10:47:39;35.83;;;16.27;;
24631;SDS011;59977;48.782;9.190;2024-01-30T10:50:05;26.23;;;13.77;;
24631;SDS011;59977;48.782;9.190;2024-01-30T10:52:33;36.72;;;16.90;;
24631;SDS011;59977;48.782;9.190;2024-01-30T10:54:59;26.92;;;14.18;;
24631;SDS011;59977;48.782;9.190;2024-01-30T10:57:26;29.77;;;13.77;;
24631;SDS011;59977;48.782;9.190;2024-01-30T10:59:58;26.55;;;13.32;;
24631;SDS011;59977;48.782;9.190;2024-01-30T11:02:26;20.13;;;10.25;;
24631;SDS011;59977;48.782;9.190;2024-01-30T11:04:59;18.85;;;9.60;;
24631;SDS011;59977;48.782;9.190;2024-01-30T11:07:26;25.45;;;11.30;;
24631;SDS011;59977;48.782;9.190;2024-01-30T11:09:53;28.35;;;14.32;;
24631;SDS011;59977;48.782;9.190;2024-01-30T11:12:32;23.23;;;11.82;;
24631;SDS011;59977;48.782;9.190;2024-01-30T11:15:06;19.42;;;10.10;;
24631;SDS011;59977;48.782;9.190;2024-01-30T11:20:10;24.63;;;9.43;;
24631;SDS011;59977;48.782;9.190;2024-01-30T11:22:37;18.83;;;9.23;;
24631;SDS011;59977;48.782;9.190;2024-01-30T11:25:02;19.60;;;9.10;;
24631;SDS011;59977;48.782;9.190;2024-01-30T11:27:30;29.83;;;9.40;;
24631;SDS011;59977;48.782;9.190;2024-01-30T11:30:01;22.77;;;10.15;;
24631;SDS011;59977;48.782;9.190;2024-01-30T11:32:27;37.42;;;11.57;;
24631;SDS011;59977;48.782;9.190;2024-01-30T11:34:53;27.80;;;11.43;;
24631;SDS011;59977;48.782;9.190;2024-01-30T11:37:20;24.20;;;9.65;;
24631;SDS011;59977;48.782;9.190;2024-01-30T11:39:49;30.85;;;9.23;;
24631;SDS011;59977;48.782;9.190;2024-01-30T11:42:16;27.45;;;11.73;;
24631;SDS011;59977;48.782;9.190;2024-01-30T11:44:46;23.33;;;9.55;;
24631;SDS011;59977;48.782;9.190;2024-01-30T11:47:12;27.77;;;11.82;;
24631;SDS011;59977;48.782;9.190;2024-01-30T11:49:39;28.38;;;10.23;;
24631;SDS011;59977;48.782;9.190;2024-01-30T11:52:05;30.88;;;10.20;;
24631;SDS011;59977;48.782;9.190;2024-01-30T11:54:30;22.52;;;11.25;;
24631;SDS011;59977;48.782;9.190;2024-01-30T11:56:56;25.60;;;9.80;;
24631;SDS011;59977;48.782;9.190;2024-01-30T11:59:22;19.50;;;9.98;;
24631;SDS011;59977;48.782;9.190;2024-01-30T12:01:47;21.60;;;9.77;;
24631;SDS011;59977;48.782;9.190;2024-01-30T12:04:13;27.05;;;9.88;;
24631;SDS011;59977;48.782;9.190;2024-01-30T12:06:39;30.35;;;9.77;;
24631;SDS011;59977;48.782;9.190;2024-01-30T12:09:05;26.88;;;10.38;;
24631;SDS011;59977;48.782;9.190;2024-01-30T12:11:44;21.60;;;9.55;;
24631;SDS011;59977;48.782;9.190;2024-01-30T12:14:11;26.42;;;9.27;;
24631;SDS011;59977;48.782;9.190;2024-01-30T12:16:37;31.02;;;9.93;;
24631;SDS011;59977;48.782;9.190;2024-01-30T12:19:03;22.90;;;9.48;;
24631;SDS011;59977;48.782;9.190;2024-01-30T12:21:29;23.73;;;9.45;;
24631;SDS011;59977;48.782;9.190;2024-01-30T12:23:55;26.02;;;9.50;;
24631;SDS011;59977;48.782;9.190;2024-01-30T12:26:24;20.83;;;9.02;;
24631;SDS011;59977;48.782;9.190;2024-01-30T12:28:55;19.80;;;9.10;;
24631;SDS011;59977;48.782;9.190;2024-01-30T12:31:31;22.23;;;8.90;;
24631;SDS011;59977;48.782;9.190;2024-01-30T12:33:59;21.00;;;9.10;;
24631;SDS011;59977;48.782;9.190;2024-01-30T12:36:25;27.63;;;8.57;;
24631;SDS011;59977;48.782;9.190;2024-01-30T12:38:51;21.27;;;9.23;;
24631;SDS011;59977;48.782;9.190;2024-01-30T12:41:17;22.48;;;8.55;;
24631;SDS011;59977;48.782;9.190;2024-01-30T12:43:43;26.38;;;8.80;;
24631;SDS011;59977;48.782;9.190;2024-01-30T12:46:09;22.75;;;8.13;;
24631;SDS011;59977;48.782;9.190;2024-01-30T12:48:35;20.92;;;8.85;;
24631;SDS011;59977;48.782;9.190;2024-01-30T12:51:00;23.10;;;8.10;;
24631;SDS011;59977;48.782;9.190;2024-01-30T12:53:26;23.95;;;8.52;;
24631;SDS011;59977;48.782;9.190;2024-01-30T12:55:52;19.17;;;8.15;;
24631;SDS011;59977;48.782;9.190;2024-01-30T12:58:19;21.83;;;8.52;;
24631;SDS011;59977;48.782;9.190;2024-01-30T13:00:44;19.52;;;8.07;;
24631;SDS011;59977;48.782;9.190;2024-01-30T13:03:10;22.60;;;8.02;;
24631;SDS011;59977;48.782;9.190;2024-01-30T13:05:36;24.40;;;7.80;;
24631;SDS011;59977;48.782;9.190;2024-01-30T13:08:02;22.60;;;8.13;;
24631;SDS011;59977;48.782;9.190;2024-01-30T13:10:28;24.90;;;7.90;;
24631;SDS011;59977;48.782;9.190;2024-01-30T13:12:54;18.65;;;7.68;;
24631;SDS011;59977;48.782;9.190;2024-01-30T13:15:19;29.23;;;8.20;;
24631;SDS011;59977;48.782;9.190;2024-01-30T13:17:45;22.90;;;8.15;;
24631;SDS011;59977;48.782;9.190;2024-01-30T13:20:13;17.75;;;7.80;;
24631;SDS011;59977;48.782;9.190;2024-01-30T13:22:42;22.13;;;8.27;;
24631;SDS011;59977;48.782;9.190;2024-01-30T13:25:08;17.85;;;7.70;;
24631;SDS011;59977;48.782;9.190;2024-01-30T13:27:34;19.65;;;8.02;;
24631;SDS011;59977;48.782;9.190;2024-01-30T13:30:00;19.23;;;8.15;;
24631;SDS011;59977;48.782;9.190;2024-01-30T13:32:26;25.00;;;8.15;;
24631;SDS011;59977;48.782;9.190;2024-01-30T13:34:51;21.92;;;7.82;;
24631;SDS011;59977;48.782;9.190;2024-01-30T13:37:17;29.70;;;8.43;;
24631;SDS011;59977;48.782;9.190;2024-01-30T13:39:43;27.83;;;8.77;;
24631;SDS011;59977;48.782;9.190;2024-01-30T13:42:08;31.88;;;8.63;;
24631;SDS011;59977;48.782;9.190;2024-01-30T13:44:35;28.75;;;8.38;;
24631;SDS011;59977;48.782;9.190;2024-01-30T13:47:01;24.23;;;8.27;;
24631;SDS011;59977;48.782;9.190;2024-01-30T13:49:27;26.63;;;8.60;;
24631;SDS011;59977;48.782;9.190;2024-01-30T13:51:52;20.85;;;8.20;;
24631;SDS011;59977;48.782;9.190;2024-01-30T13:54:18;31.98;;;8.80;;
24631;SDS011;59977;48.782;9.190;2024-01-30T13:56:44;25.17;;;8.15;;
24631;SDS011;59977;48.782;9.190;2024-01-30T13:59:10;23.73;;;8.55;;
24631;SDS011;59977;48.782;9.190;2024-01-30T14:01:35;23.33;;;9.05;;
24631;SDS011;59977;48.782;9.190;2024-01-30T14:04:01;20.80;;;8.85;;
24631;SDS011;59977;48.782;9.190;2024-01-30T14:06:26;21.73;;;8.02;;
24631;SDS011;59977;48.782;9.190;2024-01-30T14:08:52;22.33;;;8.70;;
24631;SDS011;59977;48.782;9.190;2024-01-30T14:11:18;22.63;;;8.75;;
24631;SDS011;59977;48.782;9.190;2024-01-30T14:13:44;22.45;;;9.10;;
24631;SDS011;59977;48.782;9.190;2024-01-30T14:16:10;29.25;;;9.75;;
24631;SDS011;59977;48.782;9.190;2024-01-30T14:18:35;18.73;;;9.50;;
24631;SDS011;59977;48.782;9.190;2024-01-30T14:21:01;32.13;;;8.95;;
24631;SDS011;59977;48.782;9.190;2024-01-30T14:23:26;31.63;;;8.70;;
24631;SDS011;59977;48.782;9.190;2024-01-30T14:25:52;22.02;;;9.55;;
24631;SDS011;59977;48.782;9.190;2024-01-30T14:28:18;38.65;;;10.25;;
24631;SDS011;59977;48.782;9.190;2024-01-30T14:30:43;30.92;;;10.65;;